createdAt,value
2023-03-04T00:03:28.784Z,100640.13
2023-03-04T00:08:31.274Z,100635.56
2023-03-04T00:13:33.508Z,100635.81
2023-03-04T00:18:35.865Z,100602.41
2023-03-04T00:23:38.226Z,100617.47
2023-03-04T00:28:40.941Z,100605.78
2023-03-04T00:33:44.729Z,100597.50
2023-03-04T00:38:47.863Z,100595.88
2023-03-04T00:43:49.986Z,100597.84
2023-03-04T00:48:52.181Z,100618.94
2023-03-04T00:53:54.304Z,100601.78
2023-03-04T00:58:56.555Z,100585.97
2023-03-04T01:03:58.823Z,100584.25
2023-03-04T01:09:01.040Z,100584.66
2023-03-04T01:14:03.220Z,100586.34
2023-03-04T01:19:05.474Z,100580.69
2023-03-04T01:24:07.689Z,100596.28
2023-03-04T01:29:09.942Z,100586.66
2023-03-04T01:34:12.172Z,100600.66
2023-03-04T01:39:14.365Z,100599.09
2023-03-04T01:44:16.607Z,100582.50
2023-03-04T01:49:19.615Z,100577.34
2023-03-04T01:54:23.071Z,100539.66
2023-03-04T01:59:27.783Z,100545.84
2023-03-04T02:04:33.226Z,100562.78
2023-03-04T02:09:36.167Z,100550.13
2023-03-04T02:14:39.690Z,100556.19
2023-03-04T02:20:01.262Z,100553.72
2023-03-04T02:25:15.431Z,100533.06
2023-03-04T02:30:21.786Z,100533.75
2023-03-04T02:35:24.054Z,100528.97
2023-03-04T02:40:31.542Z,100534.56
2023-03-04T02:45:39.815Z,100525.72
2023-03-04T02:50:51.772Z,100497.22
2023-03-04T02:55:54.154Z,100505.78
2023-03-04T03:00:56.771Z,100478.56
2023-03-04T03:05:58.963Z,100488.91
2023-03-04T03:11:01.153Z,100500.31
2023-03-04T03:16:03.439Z,100492.06
2023-03-04T03:21:06.547Z,100500.09
2023-03-04T03:26:08.782Z,100495.91
2023-03-04T03:31:10.996Z,100504.25
2023-03-04T03:36:13.191Z,100487.25
2023-03-04T03:41:15.450Z,100506.13
2023-03-04T03:46:17.880Z,100507.94
2023-03-04T03:51:20.086Z,100492.41
2023-03-04T03:56:22.284Z,100496.38
2023-03-04T04:01:24.430Z,100481.88
2023-03-04T04:06:27.103Z,100495.19
2023-03-04T04:11:29.484Z,100481.81
2023-03-04T04:16:31.800Z,100487.28
2023-03-04T04:21:33.957Z,100504.16
2023-03-04T04:26:36.201Z,100483.06
2023-03-04T04:31:38.408Z,100512.38
2023-03-04T04:36:41.392Z,100518.22
2023-03-04T04:41:45.575Z,100494.59
2023-03-04T04:46:47.757Z,100483.63
2023-03-04T04:51:49.993Z,100482.34
2023-03-04T04:56:52.133Z,100464.50
2023-03-04T05:01:54.332Z,100474.75
2023-03-04T05:06:56.729Z,100469.97
2023-03-04T05:11:59.004Z,100463.34
2023-03-04T05:17:01.327Z,100489.13
2023-03-04T05:22:03.538Z,100482.94
2023-03-04T05:27:05.685Z,100485.94
2023-03-04T05:32:08.054Z,100499.66
2023-03-04T05:37:10.756Z,100493.03
2023-03-04T05:42:12.829Z,100504.91
2023-03-04T05:47:14.995Z,100497.97
2023-03-04T05:52:17.543Z,100517.78
2023-03-04T05:57:19.720Z,100526.72
2023-03-04T06:02:21.935Z,100521.00
2023-03-04T06:07:24.149Z,100536.44
2023-03-04T06:12:26.399Z,100546.59
2023-03-04T06:17:28.698Z,100531.06
2023-03-04T06:22:30.880Z,100544.16
2023-03-04T06:27:33.067Z,100547.25
2023-03-04T06:32:35.369Z,100546.38
2023-03-04T06:37:38.203Z,100555.28
2023-03-04T06:42:40.984Z,100563.94
2023-03-04T06:47:45.461Z,100567.50
2023-03-04T06:52:48.417Z,100555.53
2023-03-04T06:57:51.035Z,100574.31
2023-03-04T07:02:55.135Z,100580.00
2023-03-04T07:07:57.673Z,100564.34
2023-03-04T07:13:00.101Z,100577.03
2023-03-04T07:18:02.419Z,100576.53
2023-03-04T07:23:04.644Z,100581.13
2023-03-04T07:28:06.812Z,100592.56
2023-03-04T07:33:09.353Z,100597.09
2023-03-04T07:38:11.759Z,100583.03
2023-03-04T07:43:14.372Z,100568.16
2023-03-04T07:48:16.551Z,100571.06
2023-03-04T07:53:18.908Z,100587.69
2023-03-04T07:58:21.407Z,100569.22
2023-03-04T08:03:23.893Z,100576.69
2023-03-04T08:08:26.349Z,100574.19
2023-03-04T08:13:29.333Z,100560.75
2023-03-04T08:18:31.614Z,100556.66
2023-03-04T08:23:34.496Z,100548.56
2023-03-04T08:28:37.360Z,100564.34
2023-03-04T08:33:39.758Z,100578.44
2023-03-04T08:38:42.476Z,100556.25
2023-03-04T08:43:44.842Z,100565.56
2023-03-04T08:48:47.196Z,100569.50
2023-03-04T08:53:49.464Z,100537.34
2023-03-04T08:58:51.670Z,100551.63
2023-03-04T09:03:53.975Z,100522.16
2023-03-04T09:08:56.288Z,100545.81
2023-03-04T09:13:59.274Z,100543.28
2023-03-04T09:19:01.644Z,100545.72
2023-03-04T09:24:03.920Z,100523.13
2023-03-04T09:29:06.949Z,100528.84
2023-03-04T09:34:09.116Z,100516.47
2023-03-04T09:39:11.430Z,100527.47
2023-03-04T09:44:32.583Z,100530.56
2023-03-04T09:49:38.883Z,100526.25
2023-03-04T09:55:04.907Z,100520.06
2023-03-04T10:00:21.520Z,100512.13
2023-03-04T10:05:26.769Z,100492.16
2023-03-04T10:10:37.811Z,100485.09
2023-03-04T10:15:46.593Z,100494.81
2023-03-04T10:21:09.722Z,100503.50
2023-03-04T10:26:18.226Z,100496.25
2023-03-04T10:31:37.025Z,100512.59
2023-03-04T10:36:55.186Z,100502.50
2023-03-04T10:42:03.339Z,100485.06
2023-03-04T10:47:11.687Z,100460.28
2023-03-04T10:52:27.274Z,100445.47
2023-03-04T10:57:41.407Z,100429.84
2023-03-04T11:02:45.101Z,100427.59
2023-03-04T11:07:56.743Z,100414.56
2023-03-04T11:12:59.423Z,100413.97
2023-03-04T11:18:13.229Z,100408.09
2023-03-04T11:23:40.933Z,100384.59
2023-03-04T11:28:54.803Z,100358.88
2023-03-04T11:34:06.043Z,100377.13
2023-03-04T11:39:22.777Z,100360.75
2023-03-04T11:44:25.801Z,100340.69
2023-03-04T11:49:53.791Z,100357.69
2023-03-04T11:55:05.445Z,100352.28
2023-03-04T12:00:23.025Z,100344.00
2023-03-04T12:05:25.123Z,100343.31
2023-03-04T12:10:53.374Z,100341.81
2023-03-04T12:16:10.580Z,100341.22
2023-03-04T12:21:12.732Z,100346.03
2023-03-04T12:26:20.700Z,100341.81
2023-03-04T12:31:25.842Z,100330.31
2023-03-04T12:37:04.000Z,100319.13
2023-03-04T12:42:36.810Z,100320.38
2023-03-04T12:48:07.257Z,100319.38
2023-03-04T12:53:19.062Z,100320.59
2023-03-04T12:58:32.924Z,100301.16
2023-03-04T13:04:02.522Z,100306.13
2023-03-04T13:09:38.039Z,100298.47
2023-03-04T13:14:40.676Z,100288.00
2023-03-04T13:20:11.384Z,100304.97
2023-03-04T13:25:42.670Z,100276.41
2023-03-04T13:30:58.049Z,100301.75
2023-03-04T13:36:05.645Z,100289.66
2023-03-04T13:41:31.416Z,100296.03
2023-03-04T13:46:43.963Z,100256.06
2023-03-04T13:51:46.759Z,100266.59
2023-03-04T13:57:00.898Z,100269.66
2023-03-04T14:02:11.957Z,100275.41
2023-03-04T14:07:26.273Z,100243.63
2023-03-04T14:12:31.594Z,100254.81
2023-03-04T14:17:37.642Z,100234.06
2023-03-04T14:22:40.759Z,100249.59
2023-03-04T14:27:42.900Z,100247.97
2023-03-04T14:32:48.439Z,100249.34
2023-03-04T14:37:58.755Z,100231.38
2023-03-04T14:43:08.476Z,100235.44
2023-03-04T14:48:17.704Z,100239.13
2023-03-04T14:53:23.498Z,100241.97
2023-03-04T14:58:31.837Z,100237.03
2023-03-04T15:03:35.127Z,100226.88
2023-03-04T15:08:41.505Z,100218.16
2023-03-04T15:13:50.764Z,100219.72
2023-03-04T15:18:55.695Z,100221.97
2023-03-04T15:23:57.969Z,100208.41
2023-03-04T15:29:00.352Z,100217.16
2023-03-04T15:34:02.737Z,100208.25
2023-03-04T15:39:05.000Z,100212.16
2023-03-04T15:44:07.703Z,100209.84
2023-03-04T15:49:09.835Z,100213.84
2023-03-04T15:54:14.721Z,100206.38
2023-03-04T15:59:17.827Z,100199.66
2023-03-04T16:04:20.200Z,100205.38
2023-03-04T16:09:23.244Z,100202.91
2023-03-04T16:14:25.795Z,100210.34
2023-03-04T16:19:27.976Z,100190.59
2023-03-04T16:24:34.512Z,100208.09
2023-03-04T16:29:36.735Z,100211.84
2023-03-04T16:34:38.940Z,100199.91
2023-03-04T16:39:46.382Z,100206.31
2023-03-04T16:44:52.098Z,100207.06
2023-03-04T16:49:54.781Z,100212.59
2023-03-04T16:54:57.852Z,100214.56
2023-03-04T17:00:01.879Z,100217.47
2023-03-04T17:05:04.782Z,100202.81
2023-03-04T17:10:07.367Z,100195.19
2023-03-04T17:15:14.338Z,100213.91
2023-03-04T17:20:18.784Z,100217.75
2023-03-04T17:25:20.908Z,100198.00
2023-03-04T17:30:23.328Z,100207.16
2023-03-04T17:35:26.207Z,100218.84
2023-03-04T17:40:28.485Z,100229.41
2023-03-04T17:45:30.601Z,100232.47
2023-03-04T17:50:33.448Z,100247.75
2023-03-04T17:55:35.729Z,100242.94
2023-03-04T18:00:38.013Z,100241.66
2023-03-04T18:05:40.610Z,100256.75
2023-03-04T18:10:42.933Z,100242.25
2023-03-04T18:15:46.360Z,100255.31
2023-03-04T18:20:48.592Z,100262.41
2023-03-04T18:25:51.426Z,100262.59
2023-03-04T18:30:54.066Z,100266.13
2023-03-04T18:36:05.969Z,100245.25
2023-03-04T18:41:11.796Z,100263.84
2023-03-04T18:46:29.129Z,100264.69
2023-03-04T18:51:31.856Z,100242.19
2023-03-04T18:56:51.952Z,100275.16
2023-03-04T19:01:55.630Z,100260.72
2023-03-04T19:06:59.361Z,100277.72
2023-03-04T19:12:03.454Z,100270.69
2023-03-04T19:17:05.618Z,100294.91
2023-03-04T19:22:07.874Z,100287.69
2023-03-04T19:27:10.052Z,100292.06
2023-03-04T19:32:12.346Z,100269.47
2023-03-04T19:37:16.035Z,100293.31
2023-03-04T19:42:18.256Z,100291.06
2023-03-04T19:47:20.436Z,100276.13
2023-03-04T19:52:22.544Z,100270.53
2023-03-04T19:57:24.697Z,100280.88
2023-03-04T20:02:27.093Z,100274.06
2023-03-04T20:07:29.448Z,100273.44
2023-03-04T20:12:34.028Z,100265.75
2023-03-04T20:17:36.947Z,100267.81
2023-03-04T20:22:39.372Z,100267.00
2023-03-04T20:27:41.584Z,100254.38
2023-03-04T20:32:44.467Z,100249.41
2023-03-04T20:37:46.671Z,100265.78
2023-03-04T20:42:48.849Z,100278.00
2023-03-04T20:47:51.257Z,100277.78
2023-03-04T20:52:57.177Z,100220.44
2023-03-04T20:58:02.373Z,100252.31
2023-03-04T21:03:04.815Z,100245.47
2023-03-04T21:08:06.930Z,100239.25
2023-03-04T21:13:13.089Z,100240.69
2023-03-04T21:18:16.337Z,100222.28
2023-03-04T21:23:19.580Z,100223.13
2023-03-04T21:28:21.825Z,100241.16
2023-03-04T21:33:30.354Z,100242.38
2023-03-04T21:38:32.546Z,100237.22
2023-03-04T21:43:34.740Z,100220.81
2023-03-04T21:48:37.353Z,100231.38
2023-03-04T21:53:40.008Z,100252.84
2023-03-04T21:58:42.606Z,100233.69
2023-03-04T22:03:46.034Z,100230.72
2023-03-04T22:08:52.800Z,100209.22
2023-03-04T22:13:56.408Z,100206.34
2023-03-04T22:19:00.287Z,100197.84
2023-03-04T22:24:03.343Z,100219.19
2023-03-04T22:29:05.957Z,100209.66
2023-03-04T22:34:13.326Z,100179.44
2023-03-04T22:39:20.874Z,100194.97
2023-03-04T22:44:23.088Z,100176.31
2023-03-04T22:49:25.254Z,100192.28
2023-03-04T22:54:29.978Z,100198.25
2023-03-04T22:59:32.457Z,100177.13
2023-03-04T23:04:34.707Z,100174.84
2023-03-04T23:09:36.859Z,100197.81
2023-03-04T23:14:40.337Z,100197.09
2023-03-04T23:19:42.526Z,100181.16
2023-03-04T23:24:45.374Z,100188.28
2023-03-04T23:29:47.775Z,100197.38
2023-03-04T23:34:53.683Z,100196.09
2023-03-04T23:39:56.175Z,100178.44
2023-03-04T23:44:58.293Z,100171.22
2023-03-04T23:50:00.968Z,100152.38
2023-03-04T23:55:03.247Z,100155.88
